Time;durP1;ratioP1;P1;durP2;ratioP2;P2;SDS_P1;SDS_P2;PMS_P1;PMS_P2;Temp;Humidity;BMP_temperature;BMP_pressure;BME280_temperature;BME280_humidity;BME280_pressure;Samples;Min_cycle;Max_cycle;Signal;HPM_P1;HPM_P2
2022/04/13 00:00:16;;;;;;;0.20;0.20;;;10.30;99.90;;;;;;5054552;28;20075;-71
2022/04/13 00:02:42;;;;;;;0.10;0.10;;;10.50;99.80;;;;;;5054406;28;20025;-71
2022/04/13 00:05:09;;;;;;;0.20;0.20;;;10.60;99.00;;;;;;5054297;28;20070;-71
2022/04/13 00:07:36;;;;;;;0.13;0.13;;;10.40;98.10;;;;;;5054167;28;20140;-71
2022/04/13 00:10:02;;;;;;;0.20;0.20;;;10.30;98.80;;;;;;5054332;28;20385;-72
2022/04/13 00:12:28;;;;;;;0.22;0.22;;;10.10;99.40;;;;;;5054198;28;20024;-71
2022/04/13 00:14:54;;;;;;;0.30;0.30;;;9.90;99.60;;;;;;5054289;28;20025;-71
2022/04/13 00:17:22;;;;;;;0.20;0.20;;;9.80;99.90;;;;;;5054093;28;20040;-71
2022/04/13 00:19:48;;;;;;;0.20;0.20;;;9.60;99.90;;;;;;5054490;28;20531;-71
2022/04/13 00:22:13;;;;;;;0.20;0.20;;;9.50;99.90;;;;;;5053879;28;20044;-71
2022/04/13 00:24:39;;;;;;;0.30;0.30;;;9.40;99.90;;;;;;5054014;28;20563;-71
2022/04/13 00:27:05;;;;;;;0.20;0.20;;;9.30;99.90;;;;;;5053945;28;20032;-71
2022/04/13 00:29:31;;;;;;;0.20;0.20;;;9.30;99.90;;;;;;5053919;28;20519;-71
2022/04/13 00:32:01;;;;;;;0.20;0.20;;;9.60;99.90;;;;;;5054213;28;20024;-71
2022/04/13 00:34:26;;;;;;;0.52;0.52;;;9.60;99.90;;;;;;5053575;28;20021;-71
2022/04/13 00:36:52;;;;;;;0.20;0.20;;;9.70;99.90;;;;;;5053550;28;20511;-72
2022/04/13 00:39:18;;;;;;;0.30;0.30;;;9.80;99.90;;;;;;5053693;28;20054;-72
2022/04/13 00:41:43;;;;;;;0.20;0.20;;;9.80;99.90;;;;;;5053849;28;20025;-71
2022/04/13 00:44:11;;;;;;;0.15;0.15;;;10.00;99.90;;;;;;5053647;28;20480;-71
2022/04/13 00:46:37;;;;;;;0.20;0.20;;;10.10;99.90;;;;;;5053660;28;20422;-71
2022/04/13 00:49:05;;;;;;;0.30;0.30;;;10.10;99.90;;;;;;5035769;28;20025;-71
2022/04/13 00:51:31;;;;;;;0.10;0.10;;;10.10;99.90;;;;;;5053375;28;20021;-71
2022/04/13 00:53:59;;;;;;;0.20;0.20;;;9.90;99.90;;;;;;5053384;28;20112;-71
2022/04/13 00:56:27;;;;;;;0.20;0.20;;;10.00;99.90;;;;;;5053223;28;20116;-71
2022/04/13 00:58:57;;;;;;;0.30;0.30;;;10.30;99.90;;;;;;5053521;28;20025;-71
2022/04/13 01:01:25;;;;;;;0.10;0.10;;;10.20;99.90;;;;;;5053321;28;20051;-71
2022/04/13 01:03:52;;;;;;;0.20;0.20;;;10.20;99.90;;;;;;5053231;28;20032;-71
2022/04/13 01:06:20;;;;;;;0.10;0.10;;;10.30;99.90;;;;;;5035112;28;20031;-71
2022/04/13 01:08:50;;;;;;;0.10;0.10;;;10.60;99.90;;;;;;5053119;28;20032;-71
2022/04/13 01:11:16;;;;;;;0.20;0.20;;;10.80;99.90;;;;;;5035280;28;20029;-71
2022/04/13 01:13:42;;;;;;;0.20;0.20;;;10.80;99.90;;;;;;5035184;28;20078;-71
2022/04/13 01:16:08;;;;;;;0.17;0.17;;;10.80;99.90;;;;;;5053271;28;20407;-71
2022/04/13 01:18:34;;;;;;;0.20;0.20;;;10.80;99.90;;;;;;5053068;28;20025;-71
2022/04/13 01:21:00;;;;;;;0.20;0.20;;;10.60;99.90;;;;;;5053008;28;20025;-71
2022/04/13 01:23:27;;;;;;;0.20;0.20;;;10.50;99.90;;;;;;5052806;28;20549;-71
2022/04/13 01:25:55;;;;;;;0.20;0.20;;;10.50;99.90;;;;;;5052716;28;20391;-71
2022/04/13 01:28:22;;;;;;;0.20;0.20;;;10.50;99.90;;;;;;5053128;28;20020;-71
2022/04/13 01:30:48;;;;;;;0.20;0.20;;;10.50;99.90;;;;;;5052757;28;20021;-71
2022/04/13 01:33:15;;;;;;;0.10;0.10;;;10.20;99.90;;;;;;5052771;28;20025;-71
2022/04/13 01:35:41;;;;;;;0.20;0.20;;;10.00;99.90;;;;;;5034844;28;20032;-71
2022/04/13 01:38:07;;;;;;;0.17;0.17;;;9.90;99.90;;;;;;5052648;28;20036;-71
2022/04/13 01:40:33;;;;;;;0.52;0.52;;;9.80;99.90;;;;;;5052659;28;20033;-71
2022/04/13 01:42:59;;;;;;;0.20;0.20;;;9.70;99.90;;;;;;5034596;28;20025;-71
2022/04/13 01:45:25;;;;;;;0.30;0.30;;;9.50;99.90;;;;;;5052763;28;20021;-71
2022/04/13 01:47:51;;;;;;;0.20;0.20;;;9.40;99.90;;;;;;5034030;28;20044;-71
2022/04/13 01:50:19;;;;;;;0.20;0.20;;;9.30;99.90;;;;;;5052916;28;20067;-71
2022/04/13 01:52:46;;;;;;;0.20;0.20;;;9.30;99.90;;;;;;5052523;28;20033;-71
2022/04/13 01:55:13;;;;;;;0.30;0.30;;;9.30;99.90;;;;;;5052323;28;20025;-71
2022/04/13 01:57:40;;;;;;;0.20;0.20;;;9.20;99.90;;;;;;5018068;28;20032;-70
2022/04/13 02:00:11;;;;;;;0.20;0.20;;;9.10;99.90;;;;;;5052404;28;20405;-71
2022/04/13 02:02:37;;;;;;;0.20;0.20;;;8.90;99.90;;;;;;5034281;28;20044;-71
2022/04/13 02:05:03;;;;;;;0.20;0.20;;;8.90;99.90;;;;;;5052195;28;20108;-71
2022/04/13 02:07:29;;;;;;;0.20;0.20;;;8.90;99.90;;;;;;5034365;28;20033;-70
2022/04/13 02:09:56;;;;;;;0.30;0.30;;;8.90;99.90;;;;;;5052479;28;20036;-71
2022/04/13 02:12:22;;;;;;;0.20;0.20;;;9.00;99.90;;;;;;5053304;28;20106;-72
2022/04/13 02:14:48;;;;;;;0.40;0.40;;;8.90;99.90;;;;;;5035470;28;20029;-73
2022/04/13 02:17:16;;;;;;;0.20;0.20;;;8.80;99.90;;;;;;5053176;28;20028;-73
2022/04/13 02:19:45;;;;;;;0.20;0.20;;;8.90;99.90;;;;;;5054085;28;20025;-73
2022/04/13 02:22:11;;;;;;;8.65;0.85;;;8.80;99.90;;;;;;5035959;28;20079;-73
2022/04/13 02:24:39;;;;;;;0.20;0.20;;;8.80;99.90;;;;;;5053630;28;20037;-73
2022/04/13 02:27:07;;;;;;;0.20;0.20;;;8.80;99.90;;;;;;5053415;28;20077;-73
2022/04/13 02:29:34;;;;;;;0.40;0.40;;;8.70;99.90;;;;;;5035476;28;20115;-73
2022/04/13 02:32:01;;;;;;;0.20;0.20;;;8.70;99.90;;;;;;5035625;28;20024;-73
2022/04/13 02:34:26;;;;;;;0.20;0.20;;;8.70;99.90;;;;;;5053326;28;20025;-73
2022/04/13 02:36:52;;;;;;;1.35;0.93;;;8.80;99.90;;;;;;5053254;28;20397;-73
2022/04/13 02:39:18;;;;;;;0.20;0.20;;;8.50;99.90;;;;;;5053685;28;20104;-73
2022/04/13 02:41:43;;;;;;;0.30;0.30;;;8.40;99.90;;;;;;5053605;28;20025;-73
2022/04/13 02:44:09;;;;;;;0.20;0.20;;;8.10;99.90;;;;;;5035611;28;20033;-73
2022/04/13 02:46:35;;;;;;;0.20;0.20;;;8.20;99.90;;;;;;5053749;28;20524;-74
2022/04/13 02:49:01;;;;;;;0.20;0.20;;;8.20;99.90;;;;;;5053175;28;20017;-73
2022/04/13 02:51:26;;;;;;;0.28;0.28;;;8.40;99.90;;;;;;5053140;28;20079;-73
2022/04/13 02:53:52;;;;;;;0.40;0.40;;;8.40;99.90;;;;;;5053260;28;20036;-73
2022/04/13 02:56:18;;;;;;;0.20;0.20;;;8.50;99.90;;;;;;5053112;28;20064;-73
2022/04/13 02:58:43;;;;;;;0.20;0.20;;;8.40;99.90;;;;;;5037334;28;20090;-73
2022/04/13 03:01:09;;;;;;;0.20;0.20;;;8.40;99.90;;;;;;5039289;28;20021;-73
2022/04/13 03:03:35;;;;;;;2.15;1.98;;;8.30;99.90;;;;;;5039491;28;20032;-73
2022/04/13 03:06:01;;;;;;;0.20;0.20;;;8.40;99.90;;;;;;5057214;28;20017;-73
2022/04/13 03:08:27;;;;;;;0.32;0.32;;;8.30;99.90;;;;;;5057879;28;20021;-73
2022/04/13 03:10:53;;;;;;;0.20;0.20;;;8.30;99.90;;;;;;5039662;28;20385;-73
2022/04/13 03:13:19;;;;;;;0.20;0.20;;;8.10;99.90;;;;;;5039589;28;20033;-73
2022/04/13 03:15:44;;;;;;;0.30;0.30;;;7.90;99.90;;;;;;5039042;28;20028;-73
2022/04/13 03:18:10;;;;;;;0.28;0.28;;;7.60;99.90;;;;;;5057376;28;20033;-73
2022/04/13 03:20:36;;;;;;;0.20;0.20;;;7.20;99.90;;;;;;5023401;28;20650;-73
2022/04/13 03:23:02;;;;;;;0.20;0.20;;;7.20;99.90;;;;;;5038839;28;20316;-73
2022/04/13 03:25:28;;;;;;;0.30;0.30;;;7.40;99.90;;;;;;5038768;28;20495;-73
2022/04/13 03:27:54;;;;;;;0.20;0.20;;;7.40;99.90;;;;;;5039018;28;20021;-73
2022/04/13 03:30:22;;;;;;;0.68;0.68;;;7.70;99.90;;;;;;5022600;28;20325;-73
2022/04/13 03:32:50;;;;;;;0.20;0.20;;;7.80;99.90;;;;;;5056679;28;20066;-73
2022/04/13 03:35:16;;;;;;;0.30;0.30;;;7.90;99.90;;;;;;5056871;28;20048;-73
2022/04/13 03:37:42;;;;;;;0.20;0.20;;;8.00;99.90;;;;;;5022310;28;20029;-73
2022/04/13 03:40:09;;;;;;;0.20;0.20;;;8.00;99.90;;;;;;5056698;28;20017;-73
2022/04/13 03:42:39;;;;;;;0.30;0.30;;;8.00;99.90;;;;;;5039042;28;20032;-73
2022/04/13 03:45:14;;;;;;;0.20;0.20;;;8.00;99.90;;;;;;5057059;28;20029;-73
2022/04/13 03:47:41;;;;;;;0.20;0.20;;;8.10;99.90;;;;;;5056383;28;20070;-73
2022/04/13 03:50:08;;;;;;;0.22;0.22;;;8.20;99.90;;;;;;5056874;28;20028;-73
2022/04/13 03:52:35;;;;;;;1.38;0.80;;;8.30;99.90;;;;;;5056987;28;20376;-73
2022/04/13 03:55:04;;;;;;;8.75;1.38;;;8.40;99.90;;;;;;5056431;28;20436;-73
2022/04/13 03:57:30;;;;;;;0.20;0.20;;;8.20;99.90;;;;;;5038754;28;20082;-73
2022/04/13 03:59:56;;;;;;;0.20;0.20;;;8.20;99.90;;;;;;5038680;28;20025;-73
2022/04/13 04:02:22;;;;;;;0.20;0.20;;;8.10;99.90;;;;;;5056538;28;20025;-73
2022/04/13 04:04:48;;;;;;;0.17;0.17;;;7.90;99.90;;;;;;5038669;28;20033;-73
2022/04/13 04:07:14;;;;;;;0.20;0.20;;;7.90;99.90;;;;;;5055544;28;20109;-74
2022/04/13 04:09:40;;;;;;;0.20;0.20;;;7.80;99.90;;;;;;5055118;28;20032;-73
2022/04/13 04:12:06;;;;;;;0.20;0.20;;;7.90;99.90;;;;;;5021593;28;20018;-73
2022/04/13 04:14:32;;;;;;;0.20;0.20;;;7.90;99.90;;;;;;5056323;28;20029;-73
2022/04/13 04:16:58;;;;;;;2.72;0.73;;;7.90;99.90;;;;;;5038387;28;20029;-73
2022/04/13 04:19:24;;;;;;;0.28;0.28;;;7.90;99.90;;;;;;5056678;28;20036;-73
2022/04/13 04:21:49;;;;;;;0.20;0.20;;;7.90;99.90;;;;;;5038733;28;20040;-73
2022/04/13 04:24:15;;;;;;;0.20;0.20;;;8.00;99.90;;;;;;5055939;28;20028;-74
2022/04/13 04:26:42;;;;;;;0.20;0.20;;;7.80;99.90;;;;;;5055867;28;20453;-74
2022/04/13 04:29:08;;;;;;;0.20;0.20;;;7.60;99.90;;;;;;5056434;28;20025;-74
2022/04/13 04:31:54;;;;;;;0.20;0.20;;;7.40;99.90;;;;;;5038338;28;20383;-74
2022/04/13 04:34:22;;;;;;;0.30;0.30;;;7.40;99.90;;;;;;5056187;28;20021;-74
2022/04/13 04:36:48;;;;;;;0.45;0.45;;;7.50;99.90;;;;;;5055636;28;20149;-74
2022/04/13 04:39:14;;;;;;;0.20;0.20;;;7.60;99.90;;;;;;5038181;28;20056;-74
2022/04/13 04:41:40;;;;;;;0.20;0.20;;;7.80;99.90;;;;;;5037418;28;20033;-74
2022/04/13 04:44:08;;;;;;;0.20;0.20;;;7.90;99.90;;;;;;5037556;28;20021;-74
2022/04/13 04:46:34;;;;;;;0.22;0.22;;;8.00;99.90;;;;;;5055315;28;20040;-75
2022/04/13 04:49:00;;;;;;;0.20;0.20;;;8.20;99.90;;;;;;5055147;28;20365;-74
2022/04/13 04:51:26;;;;;;;8.35;2.70;;;8.20;99.90;;;;;;5055294;28;20056;-74
2022/04/13 04:53:52;;;;;;;2.83;1.98;;;8.30;99.90;;;;;;5121003;22;20475;-75
2022/04/13 04:56:17;;;;;;;1.40;1.30;;;8.30;99.90;;;;;;5052899;28;20025;-75
2022/04/13 04:58:43;;;;;;;0.30;0.30;;;8.40;99.90;;;;;;5053092;28;20021;-75
2022/04/13 05:01:09;;;;;;;0.20;0.20;;;8.50;99.90;;;;;;5053113;28;20029;-76
2022/04/13 05:03:35;;;;;;;0.20;0.20;;;8.60;99.90;;;;;;5035115;28;20029;-76
2022/04/13 05:06:00;;;;;;;0.20;0.20;;;8.60;99.90;;;;;;5052841;28;20021;-75
2022/04/13 05:08:26;;;;;;;0.30;0.30;;;8.60;99.90;;;;;;5052963;28;20025;-75
2022/04/13 05:10:52;;;;;;;0.20;0.20;;;8.70;99.90;;;;;;5051620;28;20445;-74
2022/04/13 05:13:18;;;;;;;0.20;0.20;;;8.60;99.90;;;;;;5048252;28;20033;-74
2022/04/13 05:15:52;;;;;;;0.20;0.20;;;8.70;99.90;;;;;;5039861;28;20041;-74
2022/04/13 05:18:21;;;;;;;1.13;0.90;;;8.70;99.90;;;;;;5030245;28;20397;-74
2022/04/13 05:20:46;;;;;;;0.13;0.13;;;8.90;99.90;;;;;;5013692;28;20036;-74
2022/04/13 05:23:12;;;;;;;0.20;0.20;;;9.00;99.90;;;;;;5030642;28;20500;-74
2022/04/13 05:25:38;;;;;;;0.20;0.20;;;9.20;99.90;;;;;;5031831;28;20028;-74
2022/04/13 05:28:04;;;;;;;0.20;0.20;;;9.20;99.90;;;;;;5013941;28;20514;-74
2022/04/13 05:30:30;;;;;;;2.65;2.55;;;9.10;99.90;;;;;;5041738;28;20024;-74
2022/04/13 05:32:58;;;;;;;0.40;0.40;;;9.20;99.90;;;;;;5041939;28;20033;-75
2022/04/13 05:35:25;;;;;;;0.20;0.20;;;9.10;99.90;;;;;;5042356;28;20500;-74
2022/04/13 05:37:52;;;;;;;0.30;0.30;;;9.10;99.90;;;;;;5032701;28;20029;-75
2022/04/13 05:40:18;;;;;;;0.20;0.20;;;9.00;99.90;;;;;;5030209;28;20056;-75
2022/04/13 05:42:44;;;;;;;0.20;0.20;;;9.10;99.90;;;;;;5026440;28;20097;-75
2022/04/13 05:45:11;;;;;;;0.20;0.20;;;9.10;99.90;;;;;;5032023;28;20028;-76
2022/04/13 05:47:38;;;;;;;0.20;0.20;;;9.30;99.90;;;;;;5041469;28;20061;-76
2022/04/13 05:50:05;;;;;;;0.20;0.20;;;9.50;99.90;;;;;;5040497;28;20025;-76
2022/04/13 05:52:31;;;;;;;0.20;0.20;;;9.70;99.90;;;;;;5041232;28;20103;-75
2022/04/13 05:54:57;;;;;;;0.20;0.20;;;9.80;99.90;;;;;;5041237;28;20032;-76
2022/04/13 05:57:23;;;;;;;0.20;0.20;;;9.90;99.90;;;;;;5040923;28;20051;-76
2022/04/13 05:59:48;;;;;;;0.20;0.20;;;9.90;99.90;;;;;;5041312;28;20556;-77
2022/04/13 06:02:14;;;;;;;0.20;0.20;;;9.90;99.90;;;;;;5040857;28;20037;-76
2022/04/13 06:04:40;;;;;;;14.93;0.95;;;10.10;99.90;;;;;;5040798;28;22067;-75
2022/04/13 06:07:05;;;;;;;0.43;0.43;;;10.20;99.90;;;;;;5041162;28;20028;-74
2022/04/13 06:09:31;;;;;;;0.20;0.20;;;10.30;99.90;;;;;;5040658;28;20100;-74
2022/04/13 06:11:57;;;;;;;1.00;1.00;;;10.50;99.90;;;;;;5041381;28;20031;-74
2022/04/13 06:14:22;;;;;;;0.63;0.63;;;10.60;99.90;;;;;;5029575;28;20492;-74
2022/04/13 06:16:48;;;;;;;0.10;0.10;;;10.90;99.90;;;;;;5014125;28;20033;-75
2022/04/13 06:19:14;;;;;;;0.20;0.20;;;11.20;99.90;;;;;;5012729;28;20381;-74
2022/04/13 06:21:40;;;;;;;0.20;0.20;;;11.30;99.90;;;;;;5039700;28;20492;-74
2022/04/13 06:24:06;;;;;;;0.20;0.20;;;11.50;99.90;;;;;;5039145;28;20098;-75
2022/04/13 06:26:32;;;;;;;0.17;0.17;;;11.60;99.90;;;;;;5029425;28;20021;-75
2022/04/13 06:28:57;;;;;;;0.20;0.20;;;11.70;99.90;;;;;;5030564;28;20039;-75
2022/04/13 06:31:23;;;;;;;0.20;0.20;;;11.90;99.90;;;;;;5013388;28;20135;-75
2022/04/13 06:33:49;;;;;;;0.20;0.20;;;12.00;99.50;;;;;;5033823;28;20033;-75
2022/04/13 06:36:15;;;;;;;0.10;0.10;;;12.10;99.30;;;;;;5044478;28;20033;-75
2022/04/13 06:38:41;;;;;;;0.20;0.20;;;12.20;98.00;;;;;;5042151;28;20025;-75
2022/04/13 06:41:10;;;;;;;0.20;0.20;;;12.40;98.00;;;;;;5042931;28;20393;-76
2022/04/13 06:43:37;;;;;;;0.20;0.20;;;12.50;98.50;;;;;;5043169;28;20044;-75
2022/04/13 06:46:02;;;;;;;0.20;0.20;;;12.50;99.80;;;;;;5044321;28;20055;-76
2022/04/13 06:48:28;;;;;;;0.20;0.20;;;12.70;99.90;;;;;;5033037;28;20520;-76
2022/04/13 06:50:54;;;;;;;0.22;0.22;;;12.80;99.90;;;;;;5045060;28;20100;-75
2022/04/13 06:53:20;;;;;;;0.20;0.20;;;12.80;99.90;;;;;;5043628;28;20048;-76
2022/04/13 06:55:47;;;;;;;0.20;0.20;;;12.80;99.90;;;;;;5044712;28;20036;-76
2022/04/13 06:58:14;;;;;;;0.20;0.20;;;12.90;99.90;;;;;;5044802;28;20025;-76
2022/04/13 07:00:40;;;;;;;0.20;0.20;;;12.90;99.80;;;;;;5034888;28;20116;-75
2022/04/13 07:03:05;;;;;;;0.10;0.10;;;12.90;98.80;;;;;;5044105;28;20055;-76
2022/04/13 07:05:31;;;;;;;0.20;0.20;;;13.10;99.60;;;;;;5034842;28;20025;-76
2022/04/13 07:07:59;;;;;;;0.20;0.20;;;13.20;99.90;;;;;;5044882;28;20025;-76
2022/04/13 07:10:27;;;;;;;0.25;0.25;;;13.10;99.90;;;;;;5033658;28;20033;-76
2022/04/13 07:12:54;;;;;;;0.20;0.20;;;13.20;99.90;;;;;;5031832;28;20052;-76
2022/04/13 07:15:19;;;;;;;0.30;0.30;;;13.20;99.90;;;;;;5034405;28;20039;-76
2022/04/13 07:17:46;;;;;;;0.10;0.10;;;13.30;99.90;;;;;;5033581;28;20408;-75
2022/04/13 07:20:13;;;;;;;0.10;0.10;;;13.30;99.90;;;;;;5016828;28;20032;-75
2022/04/13 07:22:45;;;;;;;0.15;0.15;;;13.30;99.90;;;;;;5034163;28;20551;-76
2022/04/13 07:25:12;;;;;;;0.20;0.20;;;13.30;99.90;;;;;;5042760;28;20041;-76
2022/04/13 07:27:37;;;;;;;0.20;0.20;;;13.40;99.90;;;;;;5018333;28;20031;-76
2022/04/13 07:30:04;;;;;;;0.20;0.20;;;13.50;99.90;;;;;;5031505;28;20477;-74
2022/04/13 07:32:30;;;;;;;0.10;0.10;;;13.60;98.60;;;;;;5032509;28;20039;-76
2022/04/13 07:35:02;;;;;;;0.15;0.15;;;13.80;98.40;;;;;;5032265;28;20036;-76
2022/04/13 07:37:28;;;;;;;0.20;0.20;;;14.00;96.90;;;;;;5033495;28;20439;-75
2022/04/13 07:39:55;;;;;;;0.20;0.20;;;14.20;95.90;;;;;;5042703;28;20037;-76
2022/04/13 07:42:25;;;;;;;1.10;0.68;;;14.20;94.10;;;;;;5042907;28;20029;-75
2022/04/13 07:44:52;;;;;;;0.28;0.28;;;14.40;95.60;;;;;;5014701;28;20455;-76
2022/04/13 07:47:19;;;;;;;0.10;0.10;;;14.40;96.10;;;;;;5033184;28;20091;-75
2022/04/13 07:49:46;;;;;;;0.15;0.15;;;14.70;95.20;;;;;;5042320;28;20125;-76
2022/04/13 07:52:13;;;;;;;0.20;0.20;;;14.90;95.00;;;;;;5032143;28;20130;-76
2022/04/13 07:54:39;;;;;;;0.20;0.20;;;15.00;94.30;;;;;;5015039;28;20033;-76
2022/04/13 07:57:05;;;;;;;0.10;0.10;;;15.10;94.40;;;;;;5031176;28;20052;-76
2022/04/13 07:59:31;;;;;;;0.10;0.10;;;15.20;93.90;;;;;;5041118;28;20036;-76
2022/04/13 08:01:57;;;;;;;0.13;0.13;;;15.40;93.20;;;;;;5015556;28;20804;-76
2022/04/13 08:04:22;;;;;;;0.10;0.10;;;15.50;92.10;;;;;;5041118;28;20047;-75
2022/04/13 08:06:48;;;;;;;0.10;0.10;;;15.60;91.80;;;;;;5041693;28;20066;-76
2022/04/13 08:09:14;;;;;;;0.20;0.20;;;15.70;91.50;;;;;;5030051;28;20496;-76
2022/04/13 08:11:40;;;;;;;0.10;0.10;;;15.80;91.10;;;;;;5015305;28;20072;-76
2022/04/13 08:14:06;;;;;;;0.10;0.10;;;16.00;90.10;;;;;;5029585;28;20129;-76
2022/04/13 08:16:32;;;;;;;0.10;0.10;;;16.20;87.80;;;;;;5041194;28;20052;-77
2022/04/13 08:18:58;;;;;;;0.10;0.10;;;16.30;87.20;;;;;;5042110;28;20025;-75
2022/04/13 08:21:24;;;;;;;0.10;0.10;;;16.50;86.20;;;;;;5031646;28;20047;-76
2022/04/13 08:23:50;;;;;;;0.10;0.10;;;16.70;81.50;;;;;;5031045;28;20037;-76
2022/04/13 08:26:16;;;;;;;0.40;0.40;;;16.80;80.80;;;;;;5030522;28;20033;-77
2022/04/13 08:28:41;;;;;;;0.10;0.10;;;16.90;81.00;;;;;;5032958;28;20759;-76
2022/04/13 08:31:09;;;;;;;0.10;0.10;;;17.00;81.00;;;;;;5040996;28;20056;-76
2022/04/13 08:33:36;;;;;;;0.10;0.10;;;17.00;80.40;;;;;;5031048;28;20025;-76
2022/04/13 08:36:02;;;;;;;0.10;0.10;;;17.10;80.10;;;;;;5041455;28;20040;-77
2022/04/13 08:38:28;;;;;;;0.10;0.10;;;17.30;79.50;;;;;;5042220;28;20029;-76
2022/04/13 08:40:59;;;;;;;0.10;0.10;;;17.40;79.10;;;;;;5015303;28;20587;-76
2022/04/13 08:43:58;;;;;;;0.10;0.10;;;17.50;78.10;;;;;;5031356;28;20131;-76
2022/04/13 08:46:26;;;;;;;0.20;0.20;;;17.70;78.10;;;;;;5041497;28;20033;-77
2022/04/13 08:48:55;;;;;;;0.10;0.10;;;18.00;76.50;;;;;;5041882;28;20040;-76
2022/04/13 08:51:23;;;;;;;0.10;0.10;;;18.00;76.70;;;;;;5031212;28;20103;-76
2022/04/13 08:54:05;;;;;;;0.10;0.10;;;18.10;74.70;;;;;;5041751;28;21248;-76
2022/04/13 08:56:34;;;;;;;0.10;0.10;;;18.40;74.50;;;;;;5040614;28;20456;-77
2022/04/13 08:59:03;;;;;;;0.20;0.20;;;18.60;72.80;;;;;;5015878;28;20032;-76
2022/04/13 09:01:50;;;;;;;0.10;0.10;;;18.50;72.40;;;;;;5015429;28;20159;-76
2022/04/13 09:04:20;;;;;;;0.00;0.00;;;18.70;72.00;;;;;;5033513;28;20060;-76
2022/04/13 09:06:47;;;;;;;0.03;0.03;;;19.00;71.40;;;;;;5030676;28;20646;-77
2022/04/13 09:09:18;;;;;;;0.10;0.10;;;19.20;70.20;;;;;;5032603;28;20086;-77
2022/04/13 09:11:44;;;;;;;0.08;0.08;;;19.40;68.40;;;;;;5029529;28;20684;-77
2022/04/13 09:14:11;;;;;;;0.10;0.10;;;19.40;66.50;;;;;;5029258;28;20112;-76
2022/04/13 09:16:38;;;;;;;0.00;0.00;;;19.60;64.60;;;;;;5040699;28;20108;-77
2022/04/13 09:19:03;;;;;;;0.38;0.38;;;19.80;65.50;;;;;;5041062;28;20043;-78
2022/04/13 09:21:32;;;;;;;0.43;0.35;;;19.80;61.30;;;;;;5041342;28;20025;-77
2022/04/13 09:24:00;;;;;;;0.05;0.05;;;19.80;61.80;;;;;;5031022;28;20060;-76
2022/04/13 09:26:27;;;;;;;0.10;0.10;;;19.90;62.10;;;;;;5040103;28;20025;-76
2022/04/13 09:28:52;;;;;;;0.05;0.05;;;20.20;60.80;;;;;;5029986;28;20112;-75
2022/04/13 09:31:20;;;;;;;0.10;0.10;;;20.50;58.20;;;;;;5027673;28;20449;-76
2022/04/13 09:33:45;;;;;;;0.00;0.00;;;20.50;57.10;;;;;;5031369;28;20281;-77
2022/04/13 09:36:11;;;;;;;0.20;0.20;;;20.40;57.20;;;;;;5027171;28;20079;-76
2022/04/13 09:38:38;;;;;;;0.10;0.10;;;20.60;56.50;;;;;;5040822;28;21048;-76
2022/04/13 09:41:09;;;;;;;0.28;0.28;;;20.70;56.20;;;;;;5030173;28;20504;-76
2022/04/13 09:43:36;;;;;;;0.10;0.10;;;20.80;54.80;;;;;;5029597;28;20037;-76
2022/04/13 09:46:03;;;;;;;0.00;0.00;;;20.80;55.60;;;;;;5030195;28;21018;-76
2022/04/13 09:48:29;;;;;;;1.25;0.98;;;21.10;53.50;;;;;;5040354;28;20085;-76
2022/04/13 09:50:59;;;;;;;0.00;0.00;;;21.50;53.80;;;;;;5029545;28;20944;-76
2022/04/13 09:53:25;;;;;;;0.10;0.10;;;21.90;53.60;;;;;;5039855;28;20064;-76
2022/04/13 09:55:53;;;;;;;0.00;0.00;;;22.10;51.80;;;;;;5028366;28;20495;-76
2022/04/13 09:58:20;;;;;;;0.20;0.20;;;21.80;47.70;;;;;;5040591;28;20056;-77
2022/04/13 10:00:53;;;;;;;0.00;0.00;;;22.10;50.30;;;;;;5040319;28;20071;-76
2022/04/13 10:03:21;;;;;;;0.35;0.35;;;22.40;51.10;;;;;;5040115;28;20496;-75
2022/04/13 10:05:50;;;;;;;0.00;0.00;;;22.50;52.20;;;;;;5039603;28;20080;-75
2022/04/13 10:08:23;;;;;;;2.08;1.35;;;22.50;51.10;;;;;;5038785;28;20064;-75
2022/04/13 10:10:51;;;;;;;0.13;0.13;;;22.40;51.70;;;;;;5013725;28;20021;-76
2022/04/13 10:13:37;;;;;;;0.00;0.00;;;22.30;51.70;;;;;;5029927;28;20113;-76
2022/04/13 10:16:10;;;;;;;0.15;0.15;;;22.40;51.60;;;;;;5038417;28;20029;-75
2022/04/13 10:18:55;;;;;;;0.00;0.00;;;22.30;51.10;;;;;;5031205;28;20041;-75
2022/04/13 10:21:33;;;;;;;0.03;0.03;;;22.20;52.70;;;;;;5030955;28;20064;-75
2022/04/13 10:23:59;;;;;;;0.00;0.00;;;22.60;52.20;;;;;;5040335;28;20033;-75
2022/04/13 10:26:24;;;;;;;0.47;0.47;;;22.60;51.40;;;;;;5029671;28;20039;-76
2022/04/13 10:28:50;;;;;;;0.10;0.10;;;22.40;51.40;;;;;;5040037;28;21338;-76
2022/04/13 10:31:16;;;;;;;0.00;0.00;;;22.20;51.50;;;;;;5039415;28;20060;-75
2022/04/13 10:33:48;;;;;;;0.35;0.32;;;22.10;51.70;;;;;;5039715;28;20387;-74
2022/04/13 10:36:16;;;;;;;0.00;0.00;;;22.10;51.90;;;;;;5039655;28;20707;-75
2022/04/13 10:38:43;;;;;;;0.40;0.40;;;22.30;51.30;;;;;;5029183;28;20036;-75
2022/04/13 10:41:15;;;;;;;0.40;0.40;;;22.30;49.80;;;;;;5039399;28;20064;-74
2022/04/13 10:43:54;;;;;;;0.10;0.10;;;22.10;50.50;;;;;;5038937;28;20041;-74
2022/04/13 10:46:21;;;;;;;0.00;0.00;;;22.30;50.20;;;;;;5027981;28;20104;-75
2022/04/13 10:48:53;;;;;;;0.13;0.13;;;22.40;51.10;;;;;;5028245;28;20040;-75
2022/04/13 10:51:31;;;;;;;0.10;0.10;;;22.50;50.70;;;;;;5039070;28;20040;-75
2022/04/13 10:54:03;;;;;;;0.35;0.32;;;22.30;51.70;;;;;;5038968;28;20037;-75
2022/04/13 10:56:33;;;;;;;0.00;0.00;;;22.10;51.20;;;;;;5029659;28;20037;-75
2022/04/13 10:59:27;;;;;;;1.40;0.95;;;22.30;51.50;;;;;;5028347;28;20504;-74
2022/04/13 11:02:04;;;;;;;0.00;0.00;;;22.30;51.50;;;;;;5026666;28;20559;-74
2022/04/13 11:04:33;;;;;;;0.80;0.52;;;22.40;52.40;;;;;;5039387;28;20124;-74
2022/04/13 11:07:03;;;;;;;1.10;0.40;;;22.40;51.80;;;;;;5028672;28;20036;-74
2022/04/13 11:09:36;;;;;;;0.00;0.00;;;22.50;50.60;;;;;;5030056;28;20029;-75
2022/04/13 11:12:03;;;;;;;0.00;0.00;;;22.90;51.20;;;;;;5027026;28;20044;-75
2022/04/13 11:14:29;;;;;;;0.10;0.10;;;23.50;50.50;;;;;;5029613;28;20067;-75
2022/04/13 11:17:06;;;;;;;0.47;0.47;;;23.80;48.30;;;;;;5039549;28;20033;-76
2022/04/13 11:19:33;;;;;;;0.10;0.10;;;23.70;46.50;;;;;;5040349;28;20778;-75
2022/04/13 11:21:58;;;;;;;0.03;0.03;;;23.50;46.80;;;;;;5041988;28;20226;-75
2022/04/13 11:24:42;;;;;;;0.00;0.00;;;23.60;46.70;;;;;;5033163;28;20514;-74
2022/04/13 11:27:10;;;;;;;0.20;0.20;;;23.80;45.90;;;;;;5042406;28;20033;-75
2022/04/13 11:29:59;;;;;;;0.55;0.55;;;23.80;45.30;;;;;;5042972;28;20078;-75
2022/04/13 11:32:32;;;;;;;0.10;0.05;;;23.80;44.60;;;;;;5032859;28;20029;-75
2022/04/13 11:34:59;;;;;;;0.30;0.22;;;24.00;45.70;;;;;;5032997;28;20036;-74
2022/04/13 11:38:01;;;;;;;0.38;0.38;;;23.70;45.60;;;;;;5041986;28;20519;-75
2022/04/13 11:40:26;;;;;;;0.03;0.03;;;23.70;46.30;;;;;;5040979;28;20026;-74
2022/04/13 11:42:52;;;;;;;0.40;0.40;;;23.70;46.40;;;;;;5042068;28;20039;-75
2022/04/13 11:45:20;;;;;;;0.75;0.63;;;23.60;46.30;;;;;;5041983;28;20037;-75
2022/04/13 11:47:49;;;;;;;0.10;0.10;;;23.40;46.60;;;;;;5031771;28;20059;-75
2022/04/13 11:50:15;;;;;;;2.15;0.43;;;23.40;47.00;;;;;;5031258;28;20040;-75
2022/04/13 11:52:55;;;;;;;0.20;0.20;;;23.10;48.30;;;;;;5031496;28;20029;-75
2022/04/13 11:55:24;;;;;;;0.00;0.00;;;23.10;49.60;;;;;;5015462;28;20833;-75
2022/04/13 11:58:13;;;;;;;0.55;0.20;;;23.60;49.00;;;;;;5041710;28;20931;-75
2022/04/13 12:00:50;;;;;;;13.77;1.10;;;23.80;48.10;;;;;;5030653;28;20534;-75
2022/04/13 12:03:21;;;;;;;0.05;0.05;;;23.70;49.40;;;;;;5032701;28;20043;-75
2022/04/13 12:05:50;;;;;;;0.70;0.35;;;24.10;48.60;;;;;;5041236;28;20856;-75
2022/04/13 12:08:28;;;;;;;0.13;0.10;;;24.20;47.90;;;;;;5040094;28;20029;-75
2022/04/13 12:11:03;;;;;;;1.27;0.88;;;24.00;48.20;;;;;;5038326;28;20033;-75
2022/04/13 12:13:33;;;;;;;0.22;0.22;;;23.50;49.00;;;;;;5025348;28;20119;-74
2022/04/13 12:16:00;;;;;;;1.65;0.65;;;23.70;49.70;;;;;;5041719;28;20044;-74
2022/04/13 12:18:27;;;;;;;0.10;0.10;;;23.80;48.70;;;;;;5030866;28;20033;-75
2022/04/13 12:21:06;;;;;;;0.10;0.10;;;23.80;49.00;;;;;;5032704;28;20040;-75
2022/04/13 12:23:38;;;;;;;0.55;0.20;;;23.50;49.70;;;;;;5041606;28;20045;-74
2022/04/13 12:26:06;;;;;;;0.10;0.10;;;23.40;50.90;;;;;;5041737;28;20464;-74
2022/04/13 12:28:32;;;;;;;0.43;0.32;;;23.10;51.40;;;;;;5041249;28;20052;-74
2022/04/13 12:31:09;;;;;;;1.75;0.38;;;23.10;52.20;;;;;;5041353;28;20120;-74
2022/04/13 12:33:37;;;;;;;0.85;0.65;;;23.00;52.20;;;;;;5041339;28;20111;-74
2022/04/13 12:36:05;;;;;;;0.10;0.10;;;22.70;52.00;;;;;;5030573;28;20029;-74
2022/04/13 12:38:41;;;;;;;0.20;0.20;;;22.60;52.00;;;;;;5041077;28;20021;-74
2022/04/13 12:41:17;;;;;;;4.63;3.90;;;22.50;52.10;;;;;;5030697;28;20036;-74
2022/04/13 12:43:56;;;;;;;0.10;0.10;;;22.60;52.40;;;;;;5041168;28;20094;-75
2022/04/13 12:46:27;;;;;;;2.47;0.47;;;22.40;52.50;;;;;;5040132;28;20064;-73
2022/04/13 12:49:04;;;;;;;9.23;1.85;;;22.30;53.20;;;;;;5013972;28;20444;-74
2022/04/13 12:51:41;;;;;;;0.00;0.00;;;22.30;53.30;;;;;;5041465;28;20044;-74
2022/04/13 12:54:08;;;;;;;0.00;0.00;;;22.50;53.80;;;;;;5031253;28;20385;-74